sensor_id;sensor_type;location;lat;lon;timestamp;P1;durP1;ratioP1;P2;durP2;ratioP2
31730;SDS011;18310;55.586;12.286;2023-04-01T00:01:36;1.88;;;1.10;;
31730;SDS011;18310;55.586;12.286;2023-04-01T00:04:40;3.05;;;1.42;;
31730;SDS011;18310;55.586;12.286;2023-04-01T00:07:44;2.70;;;1.20;;
31730;SDS011;18310;55.586;12.286;2023-04-01T00:10:48;3.13;;;1.48;;
31730;SDS011;18310;55.586;12.286;2023-04-01T00:13:52;2.83;;;1.58;;
31730;SDS011;18310;55.586;12.286;2023-04-01T00:16:57;4.95;;;1.50;;
31730;SDS011;18310;55.586;12.286;2023-04-01T00:20:02;4.00;;;1.60;;
31730;SDS011;18310;55.586;12.286;2023-04-01T00:23:06;3.42;;;1.55;;
31730;SDS011;18310;55.586;12.286;2023-04-01T00:26:10;3.78;;;1.40;;
31730;SDS011;18310;55.586;12.286;2023-04-01T00:29:15;2.88;;;1.35;;
31730;SDS011;18310;55.586;12.286;2023-04-01T00:32:19;3.03;;;1.67;;
31730;SDS011;18310;55.586;12.286;2023-04-01T00:35:24;3.05;;;1.80;;
31730;SDS011;18310;55.586;12.286;2023-04-01T00:38:28;4.22;;;2.03;;
31730;SDS011;18310;55.586;12.286;2023-04-01T00:41:32;3.47;;;1.80;;
31730;SDS011;18310;55.586;12.286;2023-04-01T00:44:36;3.22;;;1.48;;
31730;SDS011;18310;55.586;12.286;2023-04-01T00:47:40;3.42;;;1.55;;
31730;SDS011;18310;55.586;12.286;2023-04-01T00:50:47;3.97;;;1.63;;
31730;SDS011;18310;55.586;12.286;2023-04-01T00:53:54;3.20;;;1.63;;
31730;SDS011;18310;55.586;12.286;2023-04-01T00:57:00;2.70;;;1.30;;
31730;SDS011;18310;55.586;12.286;2023-04-01T01:00:09;3.63;;;1.63;;
31730;SDS011;18310;55.586;12.286;2023-04-01T01:03:16;4.88;;;1.90;;
31730;SDS011;18310;55.586;12.286;2023-04-01T01:06:24;4.43;;;1.90;;
31730;SDS011;18310;55.586;12.286;2023-04-01T01:09:42;3.25;;;1.95;;
31730;SDS011;18310;55.586;12.286;2023-04-01T01:12:55;3.73;;;2.23;;
31730;SDS011;18310;55.586;12.286;2023-04-01T01:16:07;3.25;;;1.80;;
31730;SDS011;18310;55.586;12.286;2023-04-01T01:19:22;6.22;;;1.90;;
31730;SDS011;18310;55.586;12.286;2023-04-01T01:22:51;5.47;;;2.00;;
31730;SDS011;18310;55.586;12.286;2023-04-01T01:26:13;5.57;;;2.15;;
31730;SDS011;18310;55.586;12.286;2023-04-01T01:33:37;4.18;;;2.00;;
31730;SDS011;18310;55.586;12.286;2023-04-01T01:36:53;4.40;;;1.88;;
31730;SDS011;18310;55.586;12.286;2023-04-01T01:40:01;4.00;;;2.00;;
31730;SDS011;18310;55.586;12.286;2023-04-01T01:43:07;3.20;;;2.03;;
31730;SDS011;18310;55.586;12.286;2023-04-01T01:46:14;4.65;;;2.10;;
31730;SDS011;18310;55.586;12.286;2023-04-01T01:49:21;3.58;;;2.10;;
31730;SDS011;18310;55.586;12.286;2023-04-01T01:52:28;5.93;;;2.50;;
31730;SDS011;18310;55.586;12.286;2023-04-01T01:55:32;4.75;;;2.15;;
31730;SDS011;18310;55.586;12.286;2023-04-01T01:58:37;5.45;;;2.10;;
31730;SDS011;18310;55.586;12.286;2023-04-01T02:01:45;3.72;;;2.00;;
31730;SDS011;18310;55.586;12.286;2023-04-01T02:04:51;5.60;;;2.35;;
31730;SDS011;18310;55.586;12.286;2023-04-01T02:08:00;5.55;;;2.40;;
31730;SDS011;18310;55.586;12.286;2023-04-01T02:11:08;4.63;;;2.30;;
31730;SDS011;18310;55.586;12.286;2023-04-01T02:14:15;4.65;;;2.70;;
31730;SDS011;18310;55.586;12.286;2023-04-01T02:17:22;4.95;;;2.20;;
31730;SDS011;18310;55.586;12.286;2023-04-01T02:20:29;3.70;;;2.13;;
31730;SDS011;18310;55.586;12.286;2023-04-01T02:23:35;3.85;;;2.30;;
31730;SDS011;18310;55.586;12.286;2023-04-01T02:26:40;6.78;;;2.92;;
31730;SDS011;18310;55.586;12.286;2023-04-01T02:29:44;4.97;;;2.85;;
31730;SDS011;18310;55.586;12.286;2023-04-01T02:32:48;4.38;;;2.30;;
31730;SDS011;18310;55.586;12.286;2023-04-01T02:38:58;4.22;;;2.42;;
31730;SDS011;18310;55.586;12.286;2023-04-01T02:42:05;4.68;;;2.75;;
31730;SDS011;18310;55.586;12.286;2023-04-01T02:45:09;6.13;;;2.97;;
31730;SDS011;18310;55.586;12.286;2023-04-01T02:48:14;4.88;;;2.63;;
31730;SDS011;18310;55.586;12.286;2023-04-01T02:51:18;6.07;;;3.08;;
31730;SDS011;18310;55.586;12.286;2023-04-01T02:54:23;5.22;;;2.95;;
31730;SDS011;18310;55.586;12.286;2023-04-01T02:57:27;5.78;;;2.90;;
31730;SDS011;18310;55.586;12.286;2023-04-01T03:00:31;6.57;;;2.92;;
31730;SDS011;18310;55.586;12.286;2023-04-01T03:03:35;6.00;;;3.05;;
31730;SDS011;18310;55.586;12.286;2023-04-01T03:06:38;8.68;;;2.85;;
31730;SDS011;18310;55.586;12.286;2023-04-01T03:09:44;5.28;;;2.78;;
31730;SDS011;18310;55.586;12.286;2023-04-01T03:12:48;5.63;;;3.00;;
31730;SDS011;18310;55.586;12.286;2023-04-01T03:15:52;3.75;;;2.05;;
31730;SDS011;18310;55.586;12.286;2023-04-01T03:22:00;4.60;;;2.65;;
31730;SDS011;18310;55.586;12.286;2023-04-01T03:25:06;4.68;;;2.80;;
31730;SDS011;18310;55.586;12.286;2023-04-01T03:28:11;5.93;;;3.03;;
31730;SDS011;18310;55.586;12.286;2023-04-01T03:31:15;4.18;;;2.65;;
31730;SDS011;18310;55.586;12.286;2023-04-01T03:34:22;5.78;;;2.90;;
31730;SDS011;18310;55.586;12.286;2023-04-01T03:37:25;6.15;;;2.80;;
31730;SDS011;18310;55.586;12.286;2023-04-01T03:40:30;3.83;;;2.40;;
31730;SDS011;18310;55.586;12.286;2023-04-01T03:43:38;9.05;;;2.90;;
31730;SDS011;18310;55.586;12.286;2023-04-01T03:46:42;4.60;;;2.28;;
31730;SDS011;18310;55.586;12.286;2023-04-01T03:49:45;6.18;;;2.75;;
31730;SDS011;18310;55.586;12.286;2023-04-01T03:52:50;7.30;;;2.90;;
31730;SDS011;18310;55.586;12.286;2023-04-01T03:55:54;4.47;;;2.63;;
31730;SDS011;18310;55.586;12.286;2023-04-01T03:59:01;4.38;;;2.80;;
31730;SDS011;18310;55.586;12.286;2023-04-01T04:02:06;9.27;;;3.70;;
31730;SDS011;18310;55.586;12.286;2023-04-01T04:05:10;6.65;;;3.45;;
31730;SDS011;18310;55.586;12.286;2023-04-01T04:08:14;5.40;;;2.85;;
31730;SDS011;18310;55.586;12.286;2023-04-01T04:11:20;6.65;;;3.80;;
31730;SDS011;18310;55.586;12.286;2023-04-01T04:14:25;8.35;;;4.07;;
31730;SDS011;18310;55.586;12.286;2023-04-01T04:17:28;8.32;;;3.33;;
31730;SDS011;18310;55.586;12.286;2023-04-01T04:20:32;9.35;;;4.10;;
31730;SDS011;18310;55.586;12.286;2023-04-01T04:23:36;5.85;;;3.35;;
31730;SDS011;18310;55.586;12.286;2023-04-01T04:26:41;5.55;;;3.42;;
31730;SDS011;18310;55.586;12.286;2023-04-01T04:29:44;7.50;;;3.47;;
31730;SDS011;18310;55.586;12.286;2023-04-01T04:32:48;11.35;;;3.78;;
31730;SDS011;18310;55.586;12.286;2023-04-01T04:35:54;7.05;;;3.88;;
31730;SDS011;18310;55.586;12.286;2023-04-01T04:38:58;6.35;;;3.03;;
31730;SDS011;18310;55.586;12.286;2023-04-01T04:42:05;6.97;;;3.63;;
31730;SDS011;18310;55.586;12.286;2023-04-01T04:45:09;6.00;;;3.55;;
31730;SDS011;18310;55.586;12.286;2023-04-01T04:48:15;13.50;;;3.45;;
31730;SDS011;18310;55.586;12.286;2023-04-01T04:51:21;8.85;;;3.72;;
31730;SDS011;18310;55.586;12.286;2023-04-01T04:54:25;6.78;;;3.75;;
31730;SDS011;18310;55.586;12.286;2023-04-01T04:57:30;5.97;;;3.15;;
31730;SDS011;18310;55.586;12.286;2023-04-01T05:00:34;7.55;;;3.42;;
31730;SDS011;18310;55.586;12.286;2023-04-01T05:03:38;7.68;;;3.58;;
31730;SDS011;18310;55.586;12.286;2023-04-01T05:06:42;7.40;;;3.22;;
31730;SDS011;18310;55.586;12.286;2023-04-01T05:09:46;7.53;;;3.35;;
31730;SDS011;18310;55.586;12.286;2023-04-01T05:12:51;4.95;;;3.10;;
31730;SDS011;18310;55.586;12.286;2023-04-01T05:15:55;6.55;;;3.53;;
31730;SDS011;18310;55.586;12.286;2023-04-01T05:22:03;8.85;;;2.97;;
31730;SDS011;18310;55.586;12.286;2023-04-01T05:25:07;9.10;;;3.47;;
31730;SDS011;18310;55.586;12.286;2023-04-01T05:28:12;9.05;;;3.10;;
31730;SDS011;18310;55.586;12.286;2023-04-01T05:31:15;5.65;;;3.20;;
31730;SDS011;18310;55.586;12.286;2023-04-01T05:34:19;8.40;;;3.10;;
31730;SDS011;18310;55.586;12.286;2023-04-01T05:37:22;8.10;;;3.15;;
31730;SDS011;18310;55.586;12.286;2023-04-01T05:40:26;6.25;;;3.05;;
31730;SDS011;18310;55.586;12.286;2023-04-01T05:43:32;8.35;;;2.80;;
31730;SDS011;18310;55.586;12.286;2023-04-01T05:46:37;6.32;;;3.15;;
31730;SDS011;18310;55.586;12.286;2023-04-01T05:49:41;4.72;;;2.85;;
31730;SDS011;18310;55.586;12.286;2023-04-01T05:52:45;6.40;;;3.38;;
31730;SDS011;18310;55.586;12.286;2023-04-01T05:55:48;8.35;;;2.85;;
31730;SDS011;18310;55.586;12.286;2023-04-01T05:58:53;4.90;;;3.10;;
31730;SDS011;18310;55.586;12.286;2023-04-01T06:01:57;5.90;;;2.92;;
31730;SDS011;18310;55.586;12.286;2023-04-01T06:05:03;6.30;;;3.00;;
31730;SDS011;18310;55.586;12.286;2023-04-01T06:11:23;6.40;;;3.38;;
31730;SDS011;18310;55.586;12.286;2023-04-01T06:14:36;5.82;;;3.03;;
31730;SDS011;18310;55.586;12.286;2023-04-01T06:17:51;10.88;;;3.22;;
31730;SDS011;18310;55.586;12.286;2023-04-01T06:21:05;8.20;;;3.40;;
31730;SDS011;18310;55.586;12.286;2023-04-01T06:24:39;6.28;;;2.92;;
31730;SDS011;18310;55.586;12.286;2023-04-01T06:28:18;6.72;;;2.53;;
31730;SDS011;18310;55.586;12.286;2023-04-01T06:31:52;6.55;;;3.00;;
31730;SDS011;18310;55.586;12.286;2023-04-01T06:35:17;9.23;;;4.15;;
31730;SDS011;18310;55.586;12.286;2023-04-01T06:38:34;5.55;;;2.83;;
31730;SDS011;18310;55.586;12.286;2023-04-01T06:42:10;6.95;;;2.50;;
31730;SDS011;18310;55.586;12.286;2023-04-01T06:45:29;4.05;;;2.30;;
31730;SDS011;18310;55.586;12.286;2023-04-01T06:48:47;8.90;;;3.08;;
31730;SDS011;18310;55.586;12.286;2023-04-01T06:52:08;5.55;;;2.53;;
31730;SDS011;18310;55.586;12.286;2023-04-01T06:55:26;4.80;;;2.28;;
31730;SDS011;18310;55.586;12.286;2023-04-01T07:01:40;7.70;;;2.25;;
31730;SDS011;18310;55.586;12.286;2023-04-01T07:04:48;3.78;;;2.22;;
31730;SDS011;18310;55.586;12.286;2023-04-01T07:07:56;5.47;;;2.60;;
31730;SDS011;18310;55.586;12.286;2023-04-01T07:11:04;6.10;;;2.08;;
31730;SDS011;18310;55.586;12.286;2023-04-01T07:14:10;6.35;;;2.70;;
31730;SDS011;18310;55.586;12.286;2023-04-01T07:17:19;3.20;;;1.88;;
31730;SDS011;18310;55.586;12.286;2023-04-01T07:20:27;3.53;;;1.85;;
31730;SDS011;18310;55.586;12.286;2023-04-01T07:23:36;4.45;;;2.22;;
31730;SDS011;18310;55.586;12.286;2023-04-01T07:26:44;5.82;;;1.92;;
31730;SDS011;18310;55.586;12.286;2023-04-01T07:29:49;4.07;;;1.88;;
31730;SDS011;18310;55.586;12.286;2023-04-01T07:32:54;5.82;;;2.05;;
31730;SDS011;18310;55.586;12.286;2023-04-01T07:36:06;4.93;;;2.17;;
31730;SDS011;18310;55.586;12.286;2023-04-01T07:39:21;3.10;;;1.85;;
31730;SDS011;18310;55.586;12.286;2023-04-01T07:42:37;3.92;;;1.70;;
31730;SDS011;18310;55.586;12.286;2023-04-01T07:45:51;4.90;;;1.90;;
31730;SDS011;18310;55.586;12.286;2023-04-01T07:49:06;4.10;;;1.50;;
31730;SDS011;18310;55.586;12.286;2023-04-01T07:52:18;3.00;;;1.45;;
31730;SDS011;18310;55.586;12.286;2023-04-01T07:55:26;5.40;;;1.52;;
31730;SDS011;18310;55.586;12.286;2023-04-01T07:58:36;7.63;;;2.15;;
31730;SDS011;18310;55.586;12.286;2023-04-01T08:01:52;3.70;;;1.35;;
31730;SDS011;18310;55.586;12.286;2023-04-01T08:05:04;4.93;;;1.50;;
31730;SDS011;18310;55.586;12.286;2023-04-01T08:08:25;6.50;;;1.67;;
31730;SDS011;18310;55.586;12.286;2023-04-01T08:11:47;4.25;;;1.85;;
31730;SDS011;18310;55.586;12.286;2023-04-01T08:15:10;5.45;;;2.00;;
31730;SDS011;18310;55.586;12.286;2023-04-01T08:18:26;4.07;;;1.17;;
31730;SDS011;18310;55.586;12.286;2023-04-01T08:21:42;6.82;;;1.30;;
31730;SDS011;18310;55.586;12.286;2023-04-01T08:24:51;7.75;;;1.55;;
31730;SDS011;18310;55.586;12.286;2023-04-01T08:28:03;4.80;;;1.42;;
31730;SDS011;18310;55.586;12.286;2023-04-01T08:31:16;3.47;;;1.30;;
31730;SDS011;18310;55.586;12.286;2023-04-01T08:34:26;2.85;;;1.05;;
31730;SDS011;18310;55.586;12.286;2023-04-01T08:37:35;4.75;;;1.15;;
31730;SDS011;18310;55.586;12.286;2023-04-01T08:40:55;8.25;;;1.30;;
31730;SDS011;18310;55.586;12.286;2023-04-01T08:44:04;2.25;;;1.05;;
31730;SDS011;18310;55.586;12.286;2023-04-01T08:47:31;2.83;;;1.10;;
31730;SDS011;18310;55.586;12.286;2023-04-01T08:50:54;3.78;;;0.90;;
31730;SDS011;18310;55.586;12.286;2023-04-01T08:54:29;6.47;;;0.90;;
31730;SDS011;18310;55.586;12.286;2023-04-01T08:57:49;2.40;;;0.90;;
31730;SDS011;18310;55.586;12.286;2023-04-01T09:01:12;3.05;;;1.10;;
31730;SDS011;18310;55.586;12.286;2023-04-01T09:04:25;3.35;;;1.30;;
31730;SDS011;18310;55.586;12.286;2023-04-01T09:07:43;2.92;;;1.00;;
31730;SDS011;18310;55.586;12.286;2023-04-01T09:10:56;2.70;;;0.88;;
31730;SDS011;18310;55.586;12.286;2023-04-01T09:14:16;2.90;;;0.80;;
31730;SDS011;18310;55.586;12.286;2023-04-01T09:17:39;1.55;;;0.70;;
31730;SDS011;18310;55.586;12.286;2023-04-01T09:21:24;1.75;;;0.77;;
31730;SDS011;18310;55.586;12.286;2023-04-01T09:28:41;5.03;;;1.08;;
31730;SDS011;18310;55.586;12.286;2023-04-01T09:31:58;2.58;;;0.90;;
31730;SDS011;18310;55.586;12.286;2023-04-01T09:35:20;5.13;;;1.23;;
31730;SDS011;18310;55.586;12.286;2023-04-01T09:38:28;2.75;;;0.95;;
31730;SDS011;18310;55.586;12.286;2023-04-01T09:41:44;4.85;;;1.20;;
31730;SDS011;18310;55.586;12.286;2023-04-01T09:45:00;4.55;;;1.05;;
31730;SDS011;18310;55.586;12.286;2023-04-01T09:48:12;3.35;;;0.95;;
31730;SDS011;18310;55.586;12.286;2023-04-01T09:51:26;4.43;;;1.02;;
31730;SDS011;18310;55.586;12.286;2023-04-01T09:54:45;1.77;;;0.70;;
31730;SDS011;18310;55.586;12.286;2023-04-01T10:05:53;2.92;;;0.77;;
31730;SDS011;18310;55.586;12.286;2023-04-01T10:09:25;3.35;;;1.05;;
31730;SDS011;18310;55.586;12.286;2023-04-01T10:13:07;2.50;;;0.80;;
31730;SDS011;18310;55.586;12.286;2023-04-01T10:16:37;3.08;;;1.00;;
31730;SDS011;18310;55.586;12.286;2023-04-01T10:20:17;3.75;;;0.90;;
31730;SDS011;18310;55.586;12.286;2023-04-01T10:24:01;2.95;;;0.70;;
31730;SDS011;18310;55.586;12.286;2023-04-01T10:27:21;3.42;;;1.00;;
31730;SDS011;18310;55.586;12.286;2023-04-01T10:38:56;2.33;;;0.90;;
31730;SDS011;18310;55.586;12.286;2023-04-01T10:50:08;3.03;;;0.80;;
31730;SDS011;18310;55.586;12.286;2023-04-01T10:53:40;2.17;;;0.85;;
31730;SDS011;18310;55.586;12.286;2023-04-01T10:56:53;2.03;;;0.53;;
31730;SDS011;18310;55.586;12.286;2023-04-01T11:04:12;3.22;;;0.80;;
31730;SDS011;18310;55.586;12.286;2023-04-01T11:08:05;1.85;;;0.68;;
31730;SDS011;18310;55.586;12.286;2023-04-01T11:15:29;4.13;;;0.77;;
31730;SDS011;18310;55.586;12.286;2023-04-01T11:19:05;2.22;;;0.50;;
31730;SDS011;18310;55.586;12.286;2023-04-01T11:22:48;1.60;;;0.68;;
31730;SDS011;18310;55.586;12.286;2023-04-01T11:26:15;2.70;;;0.90;;
31730;SDS011;18310;55.586;12.286;2023-04-01T11:33:07;2.20;;;0.70;;
31730;SDS011;18310;55.586;12.286;2023-04-01T11:36:24;3.78;;;0.85;;
31730;SDS011;18310;55.586;12.286;2023-04-01T11:39:38;5.20;;;0.90;;
31730;SDS011;18310;55.586;12.286;2023-04-01T11:42:49;1.77;;;0.65;;
31730;SDS011;18310;55.586;12.286;2023-04-01T11:46:01;4.65;;;1.00;;
31730;SDS011;18310;55.586;12.286;2023-04-01T11:49:18;5.20;;;0.80;;
31730;SDS011;18310;55.586;12.286;2023-04-01T11:52:37;1.52;;;0.65;;
31730;SDS011;18310;55.586;12.286;2023-04-01T11:56:02;1.85;;;0.80;;
31730;SDS011;18310;55.586;12.286;2023-04-01T11:59:34;2.17;;;0.63;;
31730;SDS011;18310;55.586;12.286;2023-04-01T12:03:09;2.73;;;0.63;;
31730;SDS011;18310;55.586;12.286;2023-04-01T12:06:42;3.45;;;0.90;;
31730;SDS011;18310;55.586;12.286;2023-04-01T12:09:53;2.42;;;0.80;;
31730;SDS011;18310;55.586;12.286;2023-04-01T12:13:08;3.95;;;0.77;;
31730;SDS011;18310;55.586;12.286;2023-04-01T12:19:53;3.72;;;1.02;;
31730;SDS011;18310;55.586;12.286;2023-04-01T12:23:05;1.73;;;0.77;;
31730;SDS011;18310;55.586;12.286;2023-04-01T12:26:27;2.28;;;0.70;;
31730;SDS011;18310;55.586;12.286;2023-04-01T12:29:51;1.83;;;0.52;;
31730;SDS011;18310;55.586;12.286;2023-04-01T12:33:13;2.30;;;0.65;;
31730;SDS011;18310;55.586;12.286;2023-04-01T12:36:44;3.58;;;0.68;;
31730;SDS011;18310;55.586;12.286;2023-04-01T12:40:01;2.08;;;0.63;;
31730;SDS011;18310;55.586;12.286;2023-04-01T12:43:29;3.65;;;0.68;;
31730;SDS011;18310;55.586;12.286;2023-04-01T12:47:26;2.58;;;0.77;;
31730;SDS011;18310;55.586;12.286;2023-04-01T12:50:47;2.07;;;0.67;;
31730;SDS011;18310;55.586;12.286;2023-04-01T12:58:10;3.67;;;0.88;;
31730;SDS011;18310;55.586;12.286;2023-04-01T13:01:50;1.77;;;0.60;;
31730;SDS011;18310;55.586;12.286;2023-04-01T13:05:22;5.38;;;0.90;;
31730;SDS011;18310;55.586;12.286;2023-04-01T13:09:00;1.95;;;0.60;;
31730;SDS011;18310;55.586;12.286;2023-04-01T13:12:26;3.25;;;0.70;;
31730;SDS011;18310;55.586;12.286;2023-04-01T13:15:43;1.73;;;0.65;;
31730;SDS011;18310;55.586;12.286;2023-04-01T13:18:56;2.15;;;0.60;;
31730;SDS011;18310;55.586;12.286;2023-04-01T13:22:09;4.15;;;0.70;;
31730;SDS011;18310;55.586;12.286;2023-04-01T13:25:22;2.15;;;0.60;;
31730;SDS011;18310;55.586;12.286;2023-04-01T13:28:38;1.13;;;0.45;;
31730;SDS011;18310;55.586;12.286;2023-04-01T13:31:52;1.25;;;0.55;;
31730;SDS011;18310;55.586;12.286;2023-04-01T13:35:20;2.33;;;0.57;;
31730;SDS011;18310;55.586;12.286;2023-04-01T13:42:33;2.30;;;0.65;;
31730;SDS011;18310;55.586;12.286;2023-04-01T13:45:47;2.28;;;0.88;;
31730;SDS011;18310;55.586;12.286;2023-04-01T13:49:31;1.48;;;0.50;;
31730;SDS011;18310;55.586;12.286;2023-04-01T13:53:07;2.60;;;0.52;;
31730;SDS011;18310;55.586;12.286;2023-04-01T13:56:46;2.15;;;0.60;;
31730;SDS011;18310;55.586;12.286;2023-04-01T14:00:11;1.42;;;0.50;;
31730;SDS011;18310;55.586;12.286;2023-04-01T14:03:32;2.22;;;0.70;;
31730;SDS011;18310;55.586;12.286;2023-04-01T14:07:01;2.22;;;0.50;;
31730;SDS011;18310;55.586;12.286;2023-04-01T14:10:23;1.50;;;0.50;;
31730;SDS011;18310;55.586;12.286;2023-04-01T14:13:46;3.42;;;0.50;;
31730;SDS011;18310;55.586;12.286;2023-04-01T14:17:19;2.88;;;0.70;;
31730;SDS011;18310;55.586;12.286;2023-04-01T14:20:48;1.65;;;0.60;;
31730;SDS011;18310;55.586;12.286;2023-04-01T14:24:14;3.53;;;0.80;;
31730;SDS011;18310;55.586;12.286;2023-04-01T14:27:39;2.30;;;0.50;;
31730;SDS011;18310;55.586;12.286;2023-04-01T14:31:09;6.93;;;0.47;;
31730;SDS011;18310;55.586;12.286;2023-04-01T14:34:48;1.58;;;0.50;;
31730;SDS011;18310;55.586;12.286;2023-04-01T14:41:48;2.03;;;0.50;;
31730;SDS011;18310;55.586;12.286;2023-04-01T14:45:25;2.95;;;0.60;;
31730;SDS011;18310;55.586;12.286;2023-04-01T14:49:20;2.83;;;0.65;;
31730;SDS011;18310;55.586;12.286;2023-04-01T14:52:33;1.02;;;0.47;;
31730;SDS011;18310;55.586;12.286;2023-04-01T14:55:46;1.80;;;0.60;;
31730;SDS011;18310;55.586;12.286;2023-04-01T14:58:57;1.30;;;0.50;;
31730;SDS011;18310;55.586;12.286;2023-04-01T15:02:03;1.27;;;0.47;;
31730;SDS011;18310;55.586;12.286;2023-04-01T15:05:43;1.75;;;0.40;;
31730;SDS011;18310;55.586;12.286;2023-04-01T15:12:10;1.63;;;0.60;;
31730;SDS011;18310;55.586;12.286;2023-04-01T15:15:30;1.50;;;0.50;;
31730;SDS011;18310;55.586;12.286;2023-04-01T15:19:05;1.40;;;0.30;;
31730;SDS011;18310;55.586;12.286;2023-04-01T15:22:33;1.35;;;0.55;;
31730;SDS011;18310;55.586;12.286;2023-04-01T15:25:53;2.15;;;0.63;;
31730;SDS011;18310;55.586;12.286;2023-04-01T15:29:23;1.02;;;0.40;;
31730;SDS011;18310;55.586;12.286;2023-04-01T15:32:51;2.13;;;0.60;;
31730;SDS011;18310;55.586;12.286;2023-04-01T15:36:24;2.05;;;0.50;;
31730;SDS011;18310;55.586;12.286;2023-04-01T15:39:48;2.10;;;0.63;;
31730;SDS011;18310;55.586;12.286;2023-04-01T15:43:07;1.50;;;0.50;;
31730;SDS011;18310;55.586;12.286;2023-04-01T15:46:36;1.45;;;0.40;;
31730;SDS011;18310;55.586;12.286;2023-04-01T15:49:50;1.58;;;0.60;;
31730;SDS011;18310;55.586;12.286;2023-04-01T15:53:05;1.63;;;0.65;;
31730;SDS011;18310;55.586;12.286;2023-04-01T15:56:32;2.47;;;0.77;;
31730;SDS011;18310;55.586;12.286;2023-04-01T15:59:55;1.40;;;0.40;;
31730;SDS011;18310;55.586;12.286;2023-04-01T16:03:27;1.25;;;0.50;;
31730;SDS011;18310;55.586;12.286;2023-04-01T16:06:53;1.63;;;0.45;;
31730;SDS011;18310;55.586;12.286;2023-04-01T16:10:34;1.23;;;0.50;;
31730;SDS011;18310;55.586;12.286;2023-04-01T16:13:56;1.95;;;0.40;;
31730;SDS011;18310;55.586;12.286;2023-04-01T16:17:20;1.55;;;0.57;;
31730;SDS011;18310;55.586;12.286;2023-04-01T16:20:57;5.15;;;0.60;;
31730;SDS011;18310;55.586;12.286;2023-04-01T16:24:12;1.80;;;0.57;;
31730;SDS011;18310;55.586;12.286;2023-04-01T16:27:29;3.08;;;0.60;;
31730;SDS011;18310;55.586;12.286;2023-04-01T16:30:44;3.05;;;1.00;;
